Terminal Aerodrome Forecast
Issued by NWS Mobile, AL

Current Version | Previous Version | Text Only | Print | Product List | Glossary On
Versions: 1 2 3 4 5 6 7 8 9 10 11 12 13 14 15 16 17 18 19 20 21 22 23 24 25 26 27 28 29 30 31 32 33 34 35 36
000
FTUS44 KMOB 262320
TAFMOB
TAF
KMOB 262320Z 2700/2724 VRB03KT P6SM VCSH FEW070 SCT120 OVC250
     FM270300 00000KT P6SM SCT120 OVC250
     FM271000 00000KT 4SM BR SCT004=

USA.gov is the U.S. government's official web portal to all federal, state and local government web resources and services.